Sault Sainte Marie, MI

3:26 AM EST on February 06, 2016 (GMT -0500)
Sault Ste Marie Municipal / Sanderson Field | | Change Station
CLOSE
Current Station
Airport
Location: Sault Ste Marie,
Elevation: 715 ft
Nearby Weather Stations

Elev 715 ft 46.48 °N, 84.36 °W | Updated 31 minutes ago

Overcast
Overcast
22 °F
Feels Like 17 °F
N
4
Wind Variable Wind from South

Today
High -- | Low -- °F
--% Chance of Precip.
Yesterday
High -- | Low -- °F
Precip. -- in
Pressure 30.10 in
Visibility 10.0 miles
Clouds Scattered Clouds 6000 ft
Overcast 8000 ft
Windchill 17 °F
Dew Point 17 °F
Humidity 82%
Rainfall 0.01 in
Snow Depth Not available.
7:55 AM 5:48 PM
Waning Crescent, 7% visible
METAR KANJ 060755Z AUTO 17003KT 10SM SCT060 OVC080 M06/M08 A3007 RMK AO2 SNE09 SLP192 P0000 T10561083
Pressure 30.10 in
Visibility 10.0 miles
Clouds Scattered Clouds 6000 ft
Overcast 8000 ft
Windchill 17 °F
Dew Point 17 °F
Humidity 82%
Rainfall 0.01 in
Snow Depth Not available.
7:55 AM 5:48 PM
Waning Crescent, 7% visible
METAR KANJ 060755Z AUTO 17003KT 10SM SCT060 OVC080 M06/M08 A3007 RMK AO2 SNE09 SLP192 P0000 T10561083

10-Day Weather Forecast

Almanac

Astronomy

Feb. 06, 2016 Rise Set
Actual Time
Civil Twilight
Nautical Twilight
Astronomical Twilight
Moon
Length of Visible Light
Length of Day
Tomorrow will be .
, % of the Moon is Illuminated

Today's Extremes

State Highs State Lows

Community

WunderPhotos

Upload Photos

1,890,933 photos uploaded!

WunderBlog® & News

Nearby

Air Quality

  Air Quality AQ Index Pollutant
Not available.

Snow Depth

Station Depth Elevation

Earthquake Activity

City Distance Mag. Time & Date
Minimum magnitude displayed is 2.5.

Coastal Water Temperatures

Place Temperature

Stations

Nearby Weather Stations

Station Location Temp. Windchill Dew Point Humidity Wind Precip. Elev Updated Type
                   

Watches & Warnings

There are currently no watches in effect.